ADDS METAR Data INFO
IDs: Format: Raw Decoded Include TAF

Data at: 2112 UTC 22 Oct 2017

KIAG 222053Z 17007KT 10SM CLR 25/10 A3015 RMK AO2 SLP210 T02500100 56019
KIAG 221953Z 19009KT 10SM CLR 26/09 A3017 RMK AO2 SLP215 T02610094
KIAG 221853Z 21009KT 10SM CLR 26/09 A3018 RMK AO2 SLP220 T02560094
KIAG 221753Z 21008KT 10SM CLR 26/10 A3021 RMK AO2 SLP229 T02560100 10256 20106 58013
KIAG 221653Z 18006KT 10SM CLR 24/11 A3023 RMK AO2 SLP235 T02390106
KIAG 221553Z 18006KT 10SM CLR 22/11 A3025 RMK AO2 SLP244 T02220106
KIAG 221453Z 18009KT 10SM CLR 21/11 A3025 RMK AO2 SLP243 T02060106 58003
KIAG 221353Z 19004KT 10SM CLR 18/10 A3026 RMK AO2 SLP249 T01830100
KIAG 221253Z VRB03KT 10SM CLR 14/09 A3027 RMK AO2 SLP252 T01440094
KIAG 221153Z 10003KT 10SM CLR 11/07 A3026 RMK AO2 SLP250 T01110072 10144 20100 50001
KIAG 221053Z VRB03KT 10SM CLR 12/07 A3027 RMK AO2 SLP252 T01170072
KIAG 220953Z AUTO 18005KT 10SM CLR 14/08 A3026 RMK AO2 SLP249 T01390083
KIAG 220853Z AUTO 19007KT 10SM CLR 13/08 A3025 RMK AO2 SLP245 T01280078 53011
KIAG 220753Z AUTO 00000KT 10SM CLR 11/06 A3024 RMK AO2 SLP239 T01060061
KIAG 220653Z AUTO 00000KT 10SM CLR 12/07 A3023 RMK AO2 SLP237 T01170067
KIAG 220553Z AUTO 10004KT 10SM CLR 13/07 A3022 RMK AO2 SLP234 T01330072 10156 20122 56003
KIAG 220453Z AUTO 00000KT 10SM CLR 14/08 A3022 RMK AO2 SLP235 T01390078 402330078
KIAG 220353Z AUTO 15004KT 10SM CLR 15/08 A3022 RMK AO2 SLP234 T01500078
KIAG 220253Z 16003KT 10SM CLR 14/08 A3023 RMK AO2 SLP238 T01440078 57004
KIAG 220153Z 15004KT 10SM CLR 14/08 A3023 RMK AO2 SLP240 T01390083
KIAG 220053Z 00000KT 8SM CLR 14/08 A3024 RMK AO2 SLP245 T01440083
KIAG 212353Z 00000KT 10SM CLR 15/08 A3024 RMK AO2 SLP246 T01500078 10233 20150 51006
KIAG 212253Z 15004KT 10SM CLR 19/07 A3024 RMK AO2 SLP243 T01890072
KIAG 212153Z 19003KT 10SM CLR 21/07 A3023 RMK AO2 SLP240 T02110067
KIAG 212053Z 20007KT 10SM CLR 23/07 A3022 RMK AO2 SLP237 T02280072 58007
KIAG 211953Z 21009KT 10SM CLR 23/07 A3024 RMK AO2 SLP240 T02330067
KIAG 211853Z 20009KT 10SM CLR 23/07 A3023 RMK AO2 SLP239 T02280067
KIAG 211753Z 21010KT 10SM CLR 23/07 A3024 RMK AO2 SLP243 T02330072 10233 20083 58011
KIAG 211653Z 20009KT 10SM CLR 23/08 A3026 RMK AO2 SLP247 T02280083
KIAG 211553Z 22007KT 10SM CLR 21/08 A3027 RMK AO2 SLP253 T02060078
KIAG 211453Z 20006KT 10SM CLR 19/08 A3028 RMK AO2 SLP255 T01890078 50005
KIAG 211353Z 19007KT 10SM CLR 17/08 A3028 RMK AO2 SLP257 T01670083
KIAG 211253Z 00000KT 10SM CLR 12/08 A3028 RMK AO2 SLP257 T01170078
KIAG 211153Z 19003KT 10SM CLR 08/05 A3026 RMK AO2 SLP253 T00830050 10100 20078 53012
KIAG 211053Z 00000KT 10SM CLR 08/05 A3024 RMK AO2 SLP247 T00830050
KIAG 210953Z AUTO 00000KT 10SM CLR 08/05 A3024 RMK AO2 SLP243 T00780050